Time;durP1;ratioP1;P1;durP2;ratioP2;P2;SDS_P1;SDS_P2;PMS_P1;PMS_P2;Temp;Humidity;BMP_temperature;BMP_pressure;BME280_temperature;BME280_humidity;BME280_pressure;Samples;Min_cycle;Max_cycle;Signal;HPM_P1;HPM_P2
2021/12/05 00:21:45;;;;;;;9.33;9.03;;;4.50;99.90;;;;;;5117200;27;20217;-80
2021/12/05 00:24:18;;;;;;;9.30;9.00;;;4.50;99.90;;;;;;5138444;27;20271;-80
2021/12/05 00:26:53;;;;;;;9.60;9.30;;;4.40;99.90;;;;;;5138204;27;20220;-79
2021/12/05 00:29:28;;;;;;;9.40;9.10;;;4.40;99.90;;;;;;5137996;27;20268;-79
2021/12/05 00:32:11;;;;;;;9.27;8.97;;;4.20;99.90;;;;;;5138034;27;20245;-79
2021/12/05 00:34:58;;;;;;;9.27;8.97;;;4.10;99.90;;;;;;5138136;27;20213;-80
2021/12/05 00:52:19;;;;;;;9.30;9.00;;;3.70;99.90;;;;;;5121306;27;20229;-80
2021/12/05 00:57:49;;;;;;;9.30;9.00;;;3.60;99.90;;;;;;5114473;28;20248;-80
2021/12/05 01:03:35;;;;;;;9.10;8.80;;;3.60;99.90;;;;;;5116056;27;20232;-80
2021/12/05 01:12:13;;;;;;;9.00;8.70;;;3.70;99.90;;;;;;5080189;28;20224;-80
2021/12/05 01:14:57;;;;;;;9.00;8.70;;;3.70;99.90;;;;;;5110272;27;20237;-80
2021/12/05 01:17:32;;;;;;;9.07;8.77;;;3.80;99.90;;;;;;5115446;27;20229;-81
2021/12/05 01:20:05;;;;;;;9.10;8.80;;;3.80;99.90;;;;;;5114079;27;20239;-81
2021/12/05 01:22:37;;;;;;;9.23;8.93;;;3.80;99.90;;;;;;5114716;27;20235;-81
2021/12/05 01:25:17;;;;;;;8.87;8.60;;;3.80;99.90;;;;;;5114827;27;20247;-80
2021/12/05 01:27:51;;;;;;;8.80;8.60;;;3.80;99.90;;;;;;5114487;27;20221;-81
2021/12/05 01:30:28;;;;;;;8.70;8.50;;;3.80;99.90;;;;;;5114151;27;20225;-80
2021/12/05 01:33:03;;;;;;;8.80;8.60;;;3.80;99.90;;;;;;5115100;27;20325;-81
2021/12/05 01:35:52;;;;;;;9.07;8.77;;;3.80;99.90;;;;;;5114370;28;20224;-81
2021/12/05 01:38:30;;;;;;;9.00;8.70;;;3.80;99.90;;;;;;5131819;27;20267;-80
2021/12/05 01:41:27;;;;;;;9.07;8.77;;;3.70;99.90;;;;;;5130830;27;20255;-80
2021/12/05 01:50:27;;;;;;;8.90;8.60;;;3.60;99.90;;;;;;5114202;27;20224;-81
2021/12/05 01:53:23;;;;;;;8.93;8.63;;;3.50;99.90;;;;;;5114882;28;20228;-80
2021/12/05 02:01:58;;;;;;;9.10;8.80;;;3.40;99.90;;;;;;5042872;28;20267;-81
2021/12/05 02:35:03;;;;;;;9.17;8.87;;;3.10;99.90;;;;;;5099707;28;20253;-80
2021/12/05 02:38:05;;;;;;;9.10;8.80;;;3.00;99.90;;;;;;5099605;28;20237;-81
2021/12/05 02:40:46;;;;;;;9.23;8.93;;;3.00;99.90;;;;;;5098865;28;20226;-81
2021/12/05 02:43:20;;;;;;;8.93;8.63;;;3.00;99.90;;;;;;5100269;28;20232;-81
2021/12/05 02:45:48;;;;;;;9.10;8.80;;;3.00;99.90;;;;;;5098668;28;20237;-81
2021/12/05 02:48:17;;;;;;;8.93;8.63;;;2.90;99.90;;;;;;5099981;28;20244;-81
2021/12/05 02:50:45;;;;;;;8.90;8.60;;;3.00;99.90;;;;;;5109653;28;20230;-80
2021/12/05 02:53:18;;;;;;;8.73;8.53;;;2.90;99.90;;;;;;5104389;28;20260;-80
2021/12/05 02:55:49;;;;;;;8.73;8.53;;;2.90;99.90;;;;;;5100775;28;20297;-80
2021/12/05 02:58:23;;;;;;;8.77;8.57;;;2.90;99.90;;;;;;5099063;28;20241;-81
2021/12/05 03:01:06;;;;;;;8.70;8.50;;;2.90;99.90;;;;;;5098215;28;20229;-80
2021/12/05 03:03:35;;;;;;;9.00;8.70;;;2.90;99.90;;;;;;5098050;28;20245;-82
2021/12/05 03:06:15;;;;;;;9.17;8.87;;;2.90;99.90;;;;;;5097687;28;20234;-81
2021/12/05 03:08:46;;;;;;;9.00;8.70;;;2.90;99.90;;;;;;5096710;28;20237;-80
2021/12/05 03:11:15;;;;;;;9.03;8.73;;;2.90;99.90;;;;;;5097912;28;20233;-81
2021/12/05 03:13:43;;;;;;;9.00;8.70;;;2.90;99.90;;;;;;5098274;28;20225;-81
2021/12/05 03:16:14;;;;;;;9.00;8.70;;;2.90;99.90;;;;;;5097520;28;20233;-81
2021/12/05 03:18:43;;;;;;;8.90;8.60;;;2.80;99.90;;;;;;5098658;28;20283;-81
2021/12/05 03:21:11;;;;;;;8.60;8.40;;;2.80;99.90;;;;;;5097400;28;20229;-81
2021/12/05 03:23:42;;;;;;;8.90;8.60;;;2.80;99.90;;;;;;5098161;28;20351;-81
2021/12/05 03:26:16;;;;;;;8.63;8.43;;;2.80;99.90;;;;;;5097767;28;20226;-81
2021/12/05 03:28:45;;;;;;;8.90;8.60;;;2.80;99.90;;;;;;5098962;28;20345;-82
2021/12/05 03:31:14;;;;;;;8.70;8.50;;;2.90;99.90;;;;;;5098635;28;20307;-81
2021/12/05 03:33:41;;;;;;;8.60;8.40;;;2.90;99.90;;;;;;5114988;28;20301;-80
2021/12/05 03:36:12;;;;;;;8.50;8.30;;;2.80;99.90;;;;;;5115234;28;20225;-80
2021/12/05 03:38:42;;;;;;;8.47;8.27;;;2.90;99.90;;;;;;5109464;28;20232;-81
2021/12/05 03:41:13;;;;;;;8.60;8.40;;;2.90;99.90;;;;;;5103392;27;20244;-81
2021/12/05 03:43:44;;;;;;;8.73;8.53;;;2.90;99.90;;;;;;5097458;28;20704;-81
2021/12/05 03:46:12;;;;;;;8.70;8.50;;;2.90;99.90;;;;;;5100508;28;20229;-81
2021/12/05 03:48:45;;;;;;;8.73;8.53;;;2.80;99.90;;;;;;5108330;28;20303;-81
2021/12/05 03:51:16;;;;;;;8.53;8.33;;;2.80;99.90;;;;;;5106887;28;20279;-81
2021/12/05 03:53:44;;;;;;;8.60;8.40;;;2.80;99.90;;;;;;5107614;28;20226;-81
2021/12/05 03:56:13;;;;;;;8.60;8.40;;;2.80;99.90;;;;;;5101088;28;20279;-80
2021/12/05 03:58:41;;;;;;;8.93;8.63;;;2.80;99.90;;;;;;5100645;28;20222;-82
2021/12/05 04:01:11;;;;;;;8.90;8.60;;;2.80;99.90;;;;;;5099043;28;20230;-81
2021/12/05 04:03:42;;;;;;;8.83;8.60;;;2.80;99.90;;;;;;5098774;28;20287;-81
2021/12/05 04:06:13;;;;;;;8.60;8.40;;;2.70;99.90;;;;;;5102887;28;20291;-81
2021/12/05 04:08:41;;;;;;;8.70;8.50;;;2.80;99.90;;;;;;5090641;22;20242;-84
2021/12/05 04:11:21;;;;;;;9.00;8.70;;;2.70;99.90;;;;;;5061106;28;20238;-84
2021/12/05 04:13:50;;;;;;;8.70;8.50;;;2.80;99.90;;;;;;5061645;28;20306;-84
2021/12/05 04:16:20;;;;;;;8.77;8.57;;;2.80;99.90;;;;;;5061391;28;20227;-84
2021/12/05 04:18:49;;;;;;;9.20;8.90;;;2.80;99.90;;;;;;5061542;28;20238;-84
2021/12/05 04:21:19;;;;;;;8.90;8.60;;;2.80;99.90;;;;;;5061432;28;20223;-84
2021/12/05 04:23:48;;;;;;;8.57;8.37;;;2.80;99.90;;;;;;5061316;28;20233;-84
2021/12/05 04:26:21;;;;;;;8.57;8.37;;;2.80;99.90;;;;;;5061162;28;20231;-83
2021/12/05 04:28:49;;;;;;;8.73;8.53;;;2.90;99.90;;;;;;5062488;28;20238;-83
2021/12/05 04:31:20;;;;;;;8.83;8.60;;;2.90;99.90;;;;;;5062996;28;20226;-84
2021/12/05 04:33:48;;;;;;;8.63;8.43;;;2.90;99.90;;;;;;5062857;28;20301;-84
2021/12/05 04:36:17;;;;;;;8.53;8.33;;;3.00;99.90;;;;;;5062479;28;20233;-84
2021/12/05 04:38:45;;;;;;;8.67;8.47;;;3.00;99.90;;;;;;5061446;28;20231;-84
2021/12/05 04:41:14;;;;;;;8.83;8.60;;;3.00;99.90;;;;;;5061998;28;20226;-82
2021/12/05 04:43:53;;;;;;;8.60;8.40;;;3.00;99.90;;;;;;5073649;28;20242;-84
2021/12/05 04:46:23;;;;;;;8.67;8.47;;;3.00;99.90;;;;;;5078192;28;20227;-83
2021/12/05 04:48:55;;;;;;;8.43;8.23;;;3.00;99.90;;;;;;5060097;28;20257;-83
2021/12/05 04:51:30;;;;;;;8.47;8.27;;;3.00;99.90;;;;;;5059996;28;20235;-83
2021/12/05 04:53:59;;;;;;;8.60;8.40;;;3.00;99.90;;;;;;5060357;28;20222;-83
2021/12/05 04:56:29;;;;;;;8.67;8.47;;;3.00;99.90;;;;;;5058798;28;20239;-84
2021/12/05 04:59:12;;;;;;;8.70;8.50;;;3.00;99.90;;;;;;5059934;28;20242;-83
2021/12/05 05:04:26;;;;;;;8.50;8.30;;;3.00;99.90;;;;;;5074085;28;20246;-83
2021/12/05 05:06:56;;;;;;;8.60;8.40;;;3.00;99.90;;;;;;5070996;28;20291;-83
2021/12/05 05:09:24;;;;;;;8.50;8.30;;;3.00;99.90;;;;;;5063331;28;20234;-83
2021/12/05 05:11:52;;;;;;;8.37;8.17;;;3.00;99.90;;;;;;5061918;28;20234;-83
2021/12/05 05:14:30;;;;;;;8.57;8.37;;;3.10;99.90;;;;;;5061638;28;20246;-83
2021/12/05 05:16:59;;;;;;;8.50;8.30;;;3.10;99.90;;;;;;5065337;28;20245;-83
2021/12/05 05:19:33;;;;;;;8.50;8.30;;;3.10;99.90;;;;;;5073202;28;20239;-83
2021/12/05 05:44:27;;;;;;;8.60;8.40;;;3.10;99.90;;;;;;5063507;28;20225;-83
2021/12/05 05:47:06;;;;;;;8.60;8.40;;;3.10;99.90;;;;;;5063669;28;20234;-84
2021/12/05 05:49:50;;;;;;;8.60;8.40;;;3.10;99.90;;;;;;5063599;28;20317;-83
2021/12/05 05:52:19;;;;;;;8.50;8.30;;;3.10;99.90;;;;;;5063575;28;20234;-83
2021/12/05 05:54:48;;;;;;;8.47;8.27;;;3.10;99.90;;;;;;5063809;28;20258;-83
2021/12/05 05:57:28;;;;;;;8.53;8.33;;;3.10;99.90;;;;;;5063542;28;20234;-83
2021/12/05 06:00:08;;;;;;;8.47;8.27;;;3.10;99.90;;;;;;5062925;28;20297;-84
2021/12/05 06:05:22;;;;;;;8.73;8.53;;;3.00;99.90;;;;;;5064213;28;20219;-83
2021/12/05 06:07:50;;;;;;;8.40;8.20;;;3.10;99.90;;;;;;5062746;28;20246;-83
2021/12/05 06:10:28;;;;;;;8.37;8.17;;;3.00;99.90;;;;;;5062940;28;20293;-83
2021/12/05 06:12:57;;;;;;;8.37;8.17;;;3.00;99.90;;;;;;5062775;28;20293;-83
2021/12/05 06:15:28;;;;;;;8.47;8.27;;;2.90;99.90;;;;;;5062575;28;20241;-83
2021/12/05 06:18:07;;;;;;;8.27;8.07;;;2.90;99.90;;;;;;5063682;28;20234;-83
2021/12/05 06:20:36;;;;;;;8.47;8.27;;;2.90;99.90;;;;;;5062633;28;20227;-83
2021/12/05 06:23:05;;;;;;;8.50;8.30;;;3.00;99.90;;;;;;5063243;28;20261;-84
2021/12/05 06:25:37;;;;;;;8.30;8.10;;;3.00;99.90;;;;;;5063404;28;20230;-83
2021/12/05 06:28:11;;;;;;;8.40;8.20;;;3.00;99.90;;;;;;5062782;28;20243;-84
2021/12/05 06:41:58;;;;;;;8.80;8.50;;;3.00;99.90;;;;;;5063219;28;20210;-83
2021/12/05 06:47:18;;;;;;;9.10;8.80;;;2.80;99.90;;;;;;5063939;28;20239;-83
2021/12/05 06:49:48;;;;;;;8.90;8.60;;;2.70;99.90;;;;;;5062878;28;20230;-83
2021/12/05 06:52:16;;;;;;;9.07;8.77;;;2.60;99.90;;;;;;5062579;28;20285;-84
2021/12/05 06:54:45;;;;;;;8.97;8.67;;;2.60;99.90;;;;;;5063798;28;20223;-83
2021/12/05 06:57:15;;;;;;;9.10;8.80;;;2.50;99.90;;;;;;5062898;28;20292;-84
2021/12/05 06:59:45;;;;;;;9.07;8.77;;;2.40;99.90;;;;;;5063072;28;20242;-83
2021/12/05 07:07:47;;;;;;;8.57;8.37;;;2.20;99.90;;;;;;5059889;28;20234;-83
2021/12/05 07:10:18;;;;;;;8.67;8.47;;;2.20;99.90;;;;;;5062697;28;20286;-83
2021/12/05 07:15:47;;;;;;;8.37;8.17;;;2.20;99.90;;;;;;5071468;28;20211;-83
2021/12/05 07:21:26;;;;;;;8.40;8.20;;;2.30;99.90;;;;;;5063998;28;20223;-83
2021/12/05 07:24:03;;;;;;;8.40;8.20;;;2.30;99.90;;;;;;5064532;28;20230;-84
2021/12/05 07:26:48;;;;;;;8.43;8.23;;;2.30;99.90;;;;;;5072706;28;20238;-83
2021/12/05 07:40:29;;;;;;;8.50;8.30;;;2.50;99.90;;;;;;5063063;28;20219;-83
2021/12/05 07:45:51;;;;;;;8.70;8.50;;;2.50;99.90;;;;;;5062283;28;20231;-83
2021/12/05 07:48:26;;;;;;;8.30;8.10;;;2.50;99.90;;;;;;5062655;28;20241;-83
2021/12/05 07:51:10;;;;;;;8.30;8.10;;;2.50;99.90;;;;;;5062072;28;20230;-83
2021/12/05 07:53:50;;;;;;;8.47;8.27;;;2.50;99.90;;;;;;5062658;28;20234;-83
2021/12/05 07:59:15;;;;;;;8.27;8.07;;;2.60;99.90;;;;;;5078805;28;20219;-84
2021/12/05 08:16:00;;;;;;;8.70;8.47;;;2.80;99.90;;;;;;5020989;28;20224;-84
2021/12/05 08:18:29;;;;;;;8.70;8.50;;;2.80;99.90;;;;;;5053295;28;20238;-84
2021/12/05 08:20:57;;;;;;;8.80;8.50;;;2.70;99.90;;;;;;5061386;28;20230;-84
2021/12/05 08:23:25;;;;;;;8.60;8.40;;;2.70;99.90;;;;;;5062638;28;20226;-84
2021/12/05 08:28:57;;;;;;;8.63;8.43;;;2.70;99.90;;;;;;5061155;28;20218;-83
2021/12/05 08:31:36;;;;;;;8.33;8.13;;;2.70;99.90;;;;;;5062684;28;20235;-83
2021/12/05 08:34:20;;;;;;;9.07;8.77;;;2.80;99.90;;;;;;5061741;28;20237;-83
2021/12/05 08:37:21;;;;;;;8.60;8.40;;;2.80;99.90;;;;;;5062086;28;20234;-85
2021/12/05 08:43:19;;;;;;;8.80;8.53;;;2.90;99.90;;;;;;5042471;28;20219;-83
2021/12/05 09:31:22;;;;;;;8.70;8.50;;;4.20;99.90;;;;;;5058011;28;20233;-84
2021/12/05 09:40:00;;;;;;;8.87;8.60;;;4.40;99.90;;;;;;5076317;28;20270;-84
2021/12/05 09:51:19;;;;;;;8.53;8.33;;;4.60;99.90;;;;;;5066192;28;20219;-84
2021/12/05 10:02:35;;;;;;;8.50;8.30;;;4.80;99.90;;;;;;5064373;28;20226;-84
2021/12/05 10:10:54;;;;;;;9.10;8.80;;;5.00;99.90;;;;;;5039203;28;20223;-81
2021/12/05 10:13:30;;;;;;;8.87;8.67;;;5.00;99.90;;;;;;5064567;28;20234;-80
2021/12/05 10:35:58;;;;;;;8.27;8.07;;;5.60;99.90;;;;;;5062105;28;20368;-81
2021/12/05 10:38:37;;;;;;;8.10;7.90;;;5.60;99.90;;;;;;5060929;28;20245;-81
2021/12/05 10:41:23;;;;;;;8.00;7.80;;;5.80;99.90;;;;;;5060595;28;20221;-81
2021/12/05 10:43:54;;;;;;;8.30;8.10;;;5.90;99.90;;;;;;5059356;28;20309;-81
2021/12/05 10:46:26;;;;;;;7.93;7.73;;;6.10;99.90;;;;;;5067651;28;20231;-81
2021/12/05 10:49:00;;;;;;;8.10;7.90;;;6.30;99.90;;;;;;5068485;28;20254;-81
2021/12/05 10:51:32;;;;;;;8.10;7.90;;;6.40;99.90;;;;;;5062937;28;20230;-81
2021/12/05 10:54:04;;;;;;;8.17;7.97;;;6.60;99.90;;;;;;5064100;28;20231;-80
2021/12/05 10:56:36;;;;;;;8.10;7.90;;;6.60;99.90;;;;;;5061111;28;20230;-81
2021/12/05 10:59:09;;;;;;;8.40;8.20;;;6.80;99.90;;;;;;5062476;28;20281;-81
2021/12/05 11:01:41;;;;;;;8.40;8.20;;;7.00;99.90;;;;;;5060907;28;20705;-82
2021/12/05 11:04:15;;;;;;;8.37;8.17;;;7.20;99.90;;;;;;5062937;28;20230;-81
2021/12/05 11:06:51;;;;;;;8.60;8.40;;;7.30;99.90;;;;;;5062256;28;20242;-81
2021/12/05 11:09:24;;;;;;;8.20;8.00;;;7.40;99.90;;;;;;5060241;28;20238;-81
2021/12/05 11:11:57;;;;;;;7.90;7.70;;;7.50;99.90;;;;;;5060011;28;20238;-81
2021/12/05 11:14:28;;;;;;;8.10;7.90;;;7.60;99.90;;;;;;5061063;28;20230;-81
2021/12/05 11:17:06;;;;;;;8.30;8.10;;;7.70;99.90;;;;;;5060769;28;20234;-81
2021/12/05 11:19:40;;;;;;;8.37;8.17;;;7.60;99.90;;;;;;5060275;28;20269;-81
2021/12/05 11:22:18;;;;;;;8.33;8.13;;;7.40;99.90;;;;;;5060774;28;20231;-81
2021/12/05 11:24:51;;;;;;;8.60;8.40;;;7.50;99.90;;;;;;5060872;28;20219;-81
2021/12/05 11:27:30;;;;;;;8.40;8.20;;;7.70;99.90;;;;;;5060520;28;20231;-81
2021/12/05 11:30:10;;;;;;;8.63;8.43;;;7.90;99.90;;;;;;5058978;28;20227;-81
2021/12/05 11:32:43;;;;;;;8.60;8.40;;;8.00;99.90;;;;;;5059563;28;20309;-81
2021/12/05 11:35:29;;;;;;;8.20;8.00;;;7.80;99.90;;;;;;5058953;28;20227;-81
2021/12/05 11:38:06;;;;;;;8.40;8.20;;;7.50;99.90;;;;;;5058373;28;20238;-82
2021/12/05 11:40:49;;;;;;;8.40;8.20;;;7.30;99.90;;;;;;5058708;28;20238;-81
2021/12/05 11:43:22;;;;;;;8.07;7.87;;;7.00;99.90;;;;;;5066114;28;20231;-81
2021/12/05 11:45:56;;;;;;;8.13;7.93;;;6.80;99.90;;;;;;5056216;28;20223;-82
2021/12/05 11:48:27;;;;;;;7.93;7.73;;;6.90;99.90;;;;;;5057906;28;20310;-82
2021/12/05 11:50:55;;;;;;;8.30;8.10;;;7.10;99.90;;;;;;5059789;28;20618;-81
2021/12/05 11:53:45;;;;;;;8.20;8.00;;;7.40;99.90;;;;;;5058672;28;20284;-81
2021/12/05 11:56:22;;;;;;;8.50;8.30;;;7.40;99.90;;;;;;5057610;28;20254;-81
2021/12/05 11:59:11;;;;;;;8.27;8.07;;;7.30;99.90;;;;;;5058422;28;20234;-81
2021/12/05 12:01:43;;;;;;;8.10;7.90;;;7.40;99.90;;;;;;5058248;28;20266;-80
2021/12/05 12:04:15;;;;;;;8.43;8.23;;;7.30;99.90;;;;;;5059455;28;20265;-81
2021/12/05 12:06:45;;;;;;;8.20;8.00;;;7.00;99.90;;;;;;5059056;28;20227;-80
2021/12/05 12:09:13;;;;;;;8.20;8.00;;;7.00;99.90;;;;;;5058385;28;20293;-82
2021/12/05 12:11:41;;;;;;;8.23;8.03;;;7.00;99.90;;;;;;5060571;28;20303;-82
2021/12/05 12:14:11;;;;;;;8.20;8.00;;;7.00;99.90;;;;;;5059392;28;20239;-81
2021/12/05 12:16:39;;;;;;;7.97;7.77;;;7.00;99.90;;;;;;5059483;28;20234;-81
2021/12/05 12:19:07;;;;;;;8.10;7.90;;;7.00;99.90;;;;;;5059451;28;20243;-82
2021/12/05 12:21:41;;;;;;;8.13;7.93;;;6.90;99.90;;;;;;5060530;28;20262;-81
2021/12/05 12:24:12;;;;;;;7.93;7.73;;;6.80;99.90;;;;;;5059147;28;20237;-81
2021/12/05 12:26:40;;;;;;;8.50;8.30;;;6.80;99.90;;;;;;5058914;28;20226;-81
2021/12/05 12:29:11;;;;;;;7.80;7.60;;;6.70;99.90;;;;;;5058899;28;20301;-82
2021/12/05 12:31:44;;;;;;;7.60;7.40;;;6.80;99.90;;;;;;5058486;28;20231;-80
2021/12/05 12:34:16;;;;;;;8.00;7.80;;;6.90;99.90;;;;;;5059519;28;20235;-81
2021/12/05 12:36:47;;;;;;;7.80;7.60;;;7.00;99.90;;;;;;5059117;28;20227;-82
2021/12/05 12:39:36;;;;;;;7.90;7.70;;;7.10;99.90;;;;;;5062403;28;20226;-81
2021/12/05 12:42:16;;;;;;;8.20;8.00;;;7.20;99.90;;;;;;5057850;28;20235;-80
2021/12/05 12:45:16;;;;;;;8.50;8.30;;;7.30;99.90;;;;;;5056873;28;20312;-82
2021/12/05 12:47:47;;;;;;;8.27;8.07;;;7.40;99.90;;;;;;5023513;28;20324;-81
2021/12/05 12:50:36;;;;;;;8.07;7.87;;;7.50;99.90;;;;;;5058160;28;20312;-80
2021/12/05 12:53:13;;;;;;;8.40;8.20;;;7.50;99.90;;;;;;5059356;28;20292;-81
2021/12/05 12:55:46;;;;;;;8.20;8.00;;;7.60;99.90;;;;;;5058945;28;20227;-81
2021/12/05 12:58:14;;;;;;;8.27;8.07;;;7.70;99.90;;;;;;5057553;28;20226;-80
2021/12/05 13:00:47;;;;;;;8.17;7.97;;;7.90;99.90;;;;;;5058051;28;20261;-80
2021/12/05 13:03:27;;;;;;;8.37;8.17;;;8.00;99.90;;;;;;5058503;28;20714;-81
2021/12/05 13:11:51;;;;;;;8.60;8.40;;;8.40;99.90;;;;;;5061819;28;20203;-81
2021/12/05 13:14:20;;;;;;;8.17;7.97;;;8.40;99.90;;;;;;5059185;28;20250;-81
2021/12/05 13:16:51;;;;;;;8.47;8.27;;;8.40;99.90;;;;;;5058130;28;20289;-80
2021/12/05 13:19:23;;;;;;;8.10;7.90;;;8.40;99.90;;;;;;5057174;28;20290;-80
2021/12/05 13:21:54;;;;;;;8.33;8.13;;;8.40;99.90;;;;;;5057222;28;20330;-80
2021/12/05 13:24:28;;;;;;;8.30;8.10;;;8.40;99.90;;;;;;5057310;28;20237;-80
2021/12/05 13:27:03;;;;;;;8.00;7.80;;;8.20;99.90;;;;;;5058011;28;20308;-80
2021/12/05 13:29:34;;;;;;;8.07;7.87;;;8.00;99.90;;;;;;5057508;28;20249;-80
2021/12/05 13:32:10;;;;;;;7.83;7.63;;;7.90;99.90;;;;;;5057731;28;20235;-80
2021/12/05 13:34:50;;;;;;;8.17;7.97;;;7.80;99.90;;;;;;5058444;28;20264;-80
2021/12/05 13:37:47;;;;;;;7.87;7.67;;;7.80;99.90;;;;;;5064324;28;20240;-80
2021/12/05 13:40:23;;;;;;;8.00;7.80;;;7.70;99.90;;;;;;5065634;28;20285;-80
2021/12/05 13:42:54;;;;;;;8.03;7.83;;;7.50;99.90;;;;;;5060329;28;20231;-80
2021/12/05 13:45:41;;;;;;;8.10;7.90;;;7.40;99.90;;;;;;5056888;28;20267;-80
2021/12/05 13:48:29;;;;;;;7.90;7.70;;;7.40;99.90;;;;;;5057465;28;20246;-80
2021/12/05 13:51:02;;;;;;;8.10;7.90;;;7.20;99.90;;;;;;5056946;28;20262;-80
2021/12/05 13:53:46;;;;;;;7.87;7.67;;;7.00;99.90;;;;;;5059627;28;20336;-80
2021/12/05 13:56:24;;;;;;;7.90;7.70;;;6.80;99.90;;;;;;5062388;28;20234;-80
2021/12/05 13:58:59;;;;;;;8.00;7.80;;;6.70;99.90;;;;;;5070565;28;20226;-79
2021/12/05 14:01:31;;;;;;;7.93;7.73;;;6.60;99.90;;;;;;5080043;28;20228;-79
2021/12/05 14:04:24;;;;;;;8.00;7.80;;;6.60;99.90;;;;;;5080694;28;20215;-79
2021/12/05 14:06:59;;;;;;;7.50;7.30;;;6.50;99.90;;;;;;5080240;28;20225;-79
2021/12/05 14:09:36;;;;;;;7.80;7.60;;;6.50;99.90;;;;;;5079328;28;20222;-79
2021/12/05 14:12:10;;;;;;;7.60;7.40;;;6.60;99.90;;;;;;5080428;28;20211;-80
2021/12/05 14:14:42;;;;;;;7.87;7.67;;;6.50;99.90;;;;;;5079799;28;20219;-81
2021/12/05 14:17:12;;;;;;;7.93;7.73;;;6.60;99.90;;;;;;5076795;28;20249;-81
2021/12/05 14:19:45;;;;;;;7.90;7.70;;;6.60;99.90;;;;;;5074979;28;20234;-81
2021/12/05 14:22:16;;;;;;;7.70;7.50;;;6.60;99.90;;;;;;5074302;28;20218;-81
2021/12/05 14:24:48;;;;;;;7.90;7.70;;;6.60;99.90;;;;;;5068193;28;20239;-81
2021/12/05 14:27:20;;;;;;;7.70;7.50;;;6.60;99.90;;;;;;5067142;28;20241;-81
2021/12/05 14:29:50;;;;;;;7.50;7.30;;;6.60;99.90;;;;;;5066984;28;20269;-81
2021/12/05 14:32:23;;;;;;;7.70;7.50;;;6.60;99.90;;;;;;5075435;28;20250;-82
2021/12/05 14:34:56;;;;;;;7.67;7.47;;;6.60;99.90;;;;;;5069246;28;20241;-80
2021/12/05 14:37:28;;;;;;;7.97;7.77;;;6.60;99.90;;;;;;5062187;28;20309;-80
2021/12/05 14:39:59;;;;;;;7.80;7.60;;;6.60;99.90;;;;;;5061413;28;20330;-82
2021/12/05 14:42:32;;;;;;;7.67;7.47;;;6.40;99.90;;;;;;5062309;28;20223;-81
2021/12/05 14:45:05;;;;;;;7.80;7.60;;;6.40;99.90;;;;;;5060818;28;20238;-81
2021/12/05 14:47:36;;;;;;;7.97;7.77;;;6.40;99.90;;;;;;5062397;28;20234;-80
2021/12/05 14:50:10;;;;;;;7.80;7.60;;;6.40;99.90;;;;;;5066219;28;20227;-80
2021/12/05 14:52:41;;;;;;;7.77;7.57;;;6.30;99.90;;;;;;5069446;28;20220;-80
2021/12/05 14:55:15;;;;;;;7.70;7.50;;;6.20;99.90;;;;;;5065935;28;20674;-80
2021/12/05 14:57:46;;;;;;;7.67;7.47;;;6.20;99.90;;;;;;5063608;28;20243;-80
2021/12/05 15:00:21;;;;;;;7.97;7.77;;;6.00;99.90;;;;;;5062368;28;20223;-80
2021/12/05 15:02:49;;;;;;;7.80;7.60;;;5.90;99.90;;;;;;5062436;28;20221;-80
2021/12/05 15:05:21;;;;;;;7.90;7.70;;;5.80;99.90;;;;;;5061739;28;20258;-80
2021/12/05 15:07:49;;;;;;;8.20;8.00;;;5.60;99.90;;;;;;5063598;28;20234;-80
2021/12/05 15:10:22;;;;;;;8.00;7.80;;;5.50;99.90;;;;;;5069296;28;20301;-80
2021/12/05 15:12:55;;;;;;;8.10;7.90;;;5.50;99.90;;;;;;5069929;28;20260;-81
2021/12/05 15:15:25;;;;;;;8.10;7.90;;;5.50;99.90;;;;;;5062313;28;20239;-81
2021/12/05 15:17:54;;;;;;;7.93;7.73;;;5.40;99.90;;;;;;5061410;28;20242;-80
2021/12/05 15:20:27;;;;;;;7.87;7.67;;;5.30;99.90;;;;;;5062145;28;20267;-80
2021/12/05 15:23:03;;;;;;;8.00;7.80;;;5.20;99.90;;;;;;5061827;28;20265;-81
2021/12/05 15:25:31;;;;;;;8.00;7.80;;;5.10;99.90;;;;;;5060097;28;20237;-81
2021/12/05 15:28:01;;;;;;;7.53;7.33;;;5.00;99.90;;;;;;5060154;28;20243;-81
2021/12/05 15:30:32;;;;;;;8.10;7.90;;;5.00;99.90;;;;;;5059774;28;20636;-81
2021/12/05 15:33:03;;;;;;;7.80;7.60;;;5.00;99.90;;;;;;5065878;28;20223;-81
2021/12/05 15:35:33;;;;;;;8.20;8.00;;;5.10;99.90;;;;;;5058262;28;20234;-80
2021/12/05 15:38:09;;;;;;;8.17;7.97;;;5.10;99.90;;;;;;5058155;28;20239;-81
2021/12/05 15:40:39;;;;;;;8.17;7.97;;;5.10;99.90;;;;;;5062873;28;20242;-81
2021/12/05 15:43:10;;;;;;;8.20;8.00;;;5.20;99.90;;;;;;5060747;28;20237;-81
2021/12/05 15:45:40;;;;;;;8.10;7.90;;;5.20;99.90;;;;;;5059502;28;20230;-81
2021/12/05 15:48:08;;;;;;;8.30;8.10;;;5.20;99.90;;;;;;5059744;28;20281;-81
2021/12/05 15:50:40;;;;;;;8.10;7.90;;;5.20;99.90;;;;;;5059038;28;20239;-81
2021/12/05 15:53:12;;;;;;;7.97;7.77;;;5.20;99.90;;;;;;5059961;28;20277;-81
2021/12/05 15:55:43;;;;;;;7.80;7.60;;;5.00;99.90;;;;;;5059870;28;20262;-81
2021/12/05 15:58:19;;;;;;;8.40;8.20;;;4.90;99.90;;;;;;5061532;28;20243;-81
2021/12/05 16:00:49;;;;;;;8.20;8.00;;;4.90;99.90;;;;;;5059783;28;20233;-81
2021/12/05 16:03:20;;;;;;;8.30;8.10;;;4.90;99.90;;;;;;5060947;28;20246;-81
2021/12/05 16:05:55;;;;;;;8.10;7.90;;;5.00;99.90;;;;;;5059392;28;20230;-81
2021/12/05 16:08:24;;;;;;;7.97;7.77;;;5.00;99.90;;;;;;5105768;22;20234;-85
2021/12/05 16:10:58;;;;;;;8.30;8.10;;;4.90;99.90;;;;;;5063234;28;20246;-83
2021/12/05 16:13:31;;;;;;;8.40;8.20;;;4.90;99.90;;;;;;5063842;28;20227;-83
2021/12/05 16:16:11;;;;;;;8.20;8.00;;;4.80;99.90;;;;;;5063712;28;20240;-83
2021/12/05 16:18:41;;;;;;;8.40;8.20;;;4.80;99.90;;;;;;5062959;28;20258;-83
2021/12/05 16:21:19;;;;;;;8.30;8.10;;;4.70;99.90;;;;;;5069731;28;20290;-83
2021/12/05 16:23:49;;;;;;;8.33;8.13;;;4.80;99.90;;;;;;5079077;28;20217;-83
2021/12/05 16:26:20;;;;;;;8.50;8.30;;;4.70;99.90;;;;;;5079100;28;20218;-84
2021/12/05 16:28:51;;;;;;;8.13;7.93;;;4.70;99.90;;;;;;5073426;28;20222;-83
2021/12/05 16:31:22;;;;;;;8.10;7.90;;;4.70;99.90;;;;;;5073299;28;20234;-83
2021/12/05 16:33:53;;;;;;;8.40;8.20;;;4.80;99.90;;;;;;5067261;28;20237;-84
2021/12/05 16:36:26;;;;;;;8.20;8.00;;;4.80;99.90;;;;;;5065070;28;20285;-83
2021/12/05 16:38:54;;;;;;;8.20;8.00;;;4.90;99.90;;;;;;5063759;28;20292;-83
2021/12/05 16:41:28;;;;;;;8.40;8.20;;;4.90;99.90;;;;;;5062987;28;20230;-83
2021/12/05 16:44:01;;;;;;;8.43;8.23;;;4.80;99.90;;;;;;5062216;28;20227;-83
2021/12/05 16:46:33;;;;;;;8.40;8.20;;;4.80;99.90;;;;;;5063577;28;20235;-84
2021/12/05 16:49:05;;;;;;;8.33;8.13;;;4.80;99.90;;;;;;5065920;28;20911;-83
2021/12/05 16:51:38;;;;;;;8.30;8.10;;;4.80;99.90;;;;;;5064011;28;20245;-84
2021/12/05 16:54:18;;;;;;;8.60;8.40;;;4.90;99.90;;;;;;5063760;28;20235;-84
2021/12/05 16:56:58;;;;;;;8.30;8.10;;;4.90;99.90;;;;;;5064203;28;20237;-84
2021/12/05 16:59:32;;;;;;;8.40;8.20;;;5.00;99.90;;;;;;5064483;28;20249;-84
2021/12/05 17:02:20;;;;;;;8.70;8.50;;;5.00;99.90;;;;;;5065234;28;20246;-84
2021/12/05 17:04:59;;;;;;;8.87;8.67;;;5.00;99.90;;;;;;5064279;28;20223;-84
2021/12/05 17:07:47;;;;;;;8.77;8.57;;;4.90;99.90;;;;;;5063565;28;20709;-83
2021/12/05 17:10:42;;;;;;;8.80;8.60;;;4.80;99.90;;;;;;5064196;28;20246;-85
2021/12/05 17:13:25;;;;;;;8.80;8.60;;;4.70;99.90;;;;;;5063307;28;20211;-85
2021/12/05 17:15:59;;;;;;;8.93;8.73;;;4.70;99.90;;;;;;5062594;28;20228;-85
2021/12/05 17:18:32;;;;;;;8.63;8.43;;;4.60;99.90;;;;;;5063288;28;20234;-83
2021/12/05 17:21:03;;;;;;;8.40;8.20;;;4.50;99.90;;;;;;5063443;28;20231;-82
2021/12/05 17:23:38;;;;;;;8.83;8.63;;;4.50;99.90;;;;;;5063184;28;20246;-85
2021/12/05 17:26:30;;;;;;;8.90;8.70;;;4.40;99.90;;;;;;5062134;28;20256;-85
2021/12/05 17:29:06;;;;;;;8.70;8.50;;;4.40;99.90;;;;;;5061376;28;20239;-82
2021/12/05 17:31:38;;;;;;;8.70;8.50;;;4.30;99.90;;;;;;5066085;28;20230;-84
2021/12/05 17:34:09;;;;;;;8.47;8.27;;;4.30;99.90;;;;;;5065654;28;20288;-84
2021/12/05 17:36:40;;;;;;;8.70;8.50;;;4.30;99.90;;;;;;5066146;28;20215;-84
2021/12/05 17:39:13;;;;;;;8.60;8.40;;;4.30;99.90;;;;;;5065713;28;20293;-84
2021/12/05 17:41:45;;;;;;;9.00;8.80;;;4.30;99.90;;;;;;5066386;28;20231;-84
2021/12/05 17:44:16;;;;;;;8.90;8.70;;;4.30;99.90;;;;;;5065624;28;20231;-83
2021/12/05 17:46:45;;;;;;;8.50;8.30;;;4.30;99.90;;;;;;5077801;28;20227;-84
2021/12/05 17:49:15;;;;;;;8.70;8.50;;;4.30;99.90;;;;;;5076562;28;20226;-83
2021/12/05 17:51:46;;;;;;;8.80;8.60;;;4.20;99.90;;;;;;5070287;28;20231;-84
2021/12/05 17:54:25;;;;;;;8.60;8.40;;;4.10;99.90;;;;;;5069273;28;20230;-83
2021/12/05 17:56:55;;;;;;;8.70;8.50;;;4.10;99.90;;;;;;5067795;28;20231;-83
2021/12/05 17:59:29;;;;;;;8.57;8.37;;;4.00;99.90;;;;;;5066282;28;20303;-83
2021/12/05 18:04:45;;;;;;;8.87;8.67;;;3.90;99.90;;;;;;5068067;28;20219;-83
2021/12/05 18:07:13;;;;;;;9.20;8.90;;;3.90;99.90;;;;;;5066682;28;20226;-83
2021/12/05 18:09:43;;;;;;;8.70;8.50;;;3.80;99.90;;;;;;5066488;28;20239;-84
2021/12/05 18:12:19;;;;;;;8.70;8.50;;;3.80;99.90;;;;;;5067460;28;20234;-84
2021/12/05 18:14:47;;;;;;;9.20;8.90;;;3.70;99.90;;;;;;5066057;28;20277;-84
2021/12/05 18:17:16;;;;;;;9.13;8.83;;;3.60;99.90;;;;;;5066952;28;20242;-84